Time;durP1;ratioP1;P1;durP2;ratioP2;P2;SDS_P1;SDS_P2;PMS_P1;PMS_P2;Temp;Humidity;BMP_temperature;BMP_pressure;BME280_temperature;BME280_humidity;BME280_pressure;Samples;Min_cycle;Max_cycle;Signal;HPM_P1;HPM_P2
2022/12/16 00:01:22;;;;;;;14.23;5.05;;;1.70;99.90;;;;;;5112244;28;20483;-87
2022/12/16 00:03:49;;;;;;;15.15;5.10;;;;;;;;;;5112246;28;20047;-86
2022/12/16 00:06:15;;;;;;;14.40;5.60;;;;;;;;;;5112192;28;20373;-87
2022/12/16 00:08:41;;;;;;;11.75;5.72;;;;;;;;;;5094771;28;20047;-87
2022/12/16 00:11:07;;;;;;;13.60;5.75;;;1.60;99.90;;;;;;5111943;28;20096;-86
2022/12/16 00:13:35;;;;;;;15.52;6.25;;;1.60;99.90;;;;;;5112846;28;20531;-84
2022/12/16 00:16:05;;;;;;;18.55;6.65;;;;;;;;;;5113079;28;20047;-87
2022/12/16 00:18:31;;;;;;;14.95;5.07;;;;;;;;;;5111962;28;20055;-86
2022/12/16 00:20:57;;;;;;;11.82;5.18;;;1.60;99.90;;;;;;5094555;28;20445;-87
2022/12/16 00:23:23;;;;;;;;;;;;;;;;;;5112296;28;20051;-87
2022/12/16 00:25:49;;;;;;;8.40;4.68;;;;;;;;;;5111805;28;19927;-87
2022/12/16 00:28:16;;;;;;;14.98;5.40;;;;;;;;;;5111693;28;20443;-86
2022/12/16 00:30:42;;;;;;;14.23;5.32;;;;;;;;;;5111546;28;20044;-87
2022/12/16 00:33:08;;;;;;;;;;;1.70;99.90;;;;;;5113128;28;20045;-86
2022/12/16 00:35:34;;;;;;;9.50;4.90;;;;;;;;;;5094466;28;20394;-86
2022/12/16 00:38:00;;;;;;;15.20;5.22;;;;;;;;;;5110883;28;20059;-85
2022/12/16 00:40:26;;;;;;;9.45;5.20;;;;;;;;;;5112967;28;20661;-87
2022/12/16 00:42:52;;;;;;;;;;;;;;;;;;5112027;28;20479;-86
2022/12/16 00:45:19;;;;;;;11.57;5.60;;;;;;;;;;5094563;28;19927;-86
2022/12/16 00:47:45;;;;;;;14.05;5.88;;;;;;;;;;5111552;28;20051;-85
2022/12/16 00:50:11;;;;;;;20.80;6.05;;;;;;;;;;5094376;28;20083;-85
2022/12/16 00:52:37;;;;;;;13.48;6.05;;;;;;;;;;5094282;28;20480;-84
2022/12/16 00:55:03;;;;;;;13.45;6.13;;;;;;;;;;5111149;28;20044;-85
2022/12/16 00:57:29;;;;;;;12.05;5.95;;;1.90;99.90;;;;;;5111143;28;20129;-86
2022/12/16 00:59:55;;;;;;;11.77;5.20;;;;;;;;;;5111397;28;20106;-86
2022/12/16 01:02:21;;;;;;;12.77;5.57;;;;;;;;;;5111274;28;20058;-85
2022/12/16 01:04:47;;;;;;;9.38;5.40;;;;;;;;;;5094456;28;20142;-84
2022/12/16 01:07:13;;;;;;;11.52;5.47;;;;;;;;;;5111200;28;20392;-84
2022/12/16 01:09:39;;;;;;;11.55;5.60;;;;;;;;;;5111001;28;20480;-81
2022/12/16 01:12:05;;;;;;;12.68;5.97;;;;;;;;;;5112290;28;20356;-82
2022/12/16 01:14:31;;;;;;;13.85;5.90;;;1.90;99.90;;;;;;5111301;28;20142;-82
2022/12/16 01:16:57;;;;;;;15.75;5.80;;;;;;;;;;5111903;28;20130;-82
2022/12/16 01:19:23;;;;;;;15.02;5.03;;;;;;;;;;5112435;28;20108;-82
2022/12/16 01:21:49;;;;;;;15.07;5.32;;;;;;;;;;5111136;28;20130;-84
2022/12/16 01:24:15;;;;;;;12.63;5.15;;;2.10;99.90;;;;;;5111405;28;20048;-82
2022/12/16 01:26:41;;;;;;;10.77;5.38;;;;;;;;;;5111053;28;20054;-82
2022/12/16 01:29:07;;;;;;;;;;;;;;;;;;5094620;28;20101;-82
2022/12/16 01:31:33;;;;;;;10.55;5.28;;;1.80;99.90;;;;;;5112083;28;19920;-80
2022/12/16 01:33:59;;;;;;;9.57;4.80;;;;;;;;;;5110925;28;20048;-80
2022/12/16 01:36:25;;;;;;;11.85;4.60;;;;;;;;;;5115128;28;20286;-81
2022/12/16 01:38:51;;;;;;;8.30;4.30;;;;;;;;;;5114469;28;20500;-82
2022/12/16 01:41:18;;;;;;;22.08;4.78;;;;;;;;;;5114986;28;20059;-81
2022/12/16 01:43:44;;;;;;;;;;;2.20;99.90;;;;;;5116428;28;20048;-81
2022/12/16 01:46:13;;;;;;;10.15;4.55;;;2.30;99.90;;;;;;5114858;28;20364;-82
2022/12/16 01:48:42;;;;;;;10.20;4.32;;;;;;;;;;5114567;28;20093;-81
2022/12/16 01:51:23;;;;;;;12.30;4.70;;;;;;;;;;5114285;28;20058;-79
2022/12/16 01:53:50;;;;;;;13.35;4.65;;;;;;;;;;5115544;28;20521;-80
2022/12/16 01:56:17;;;;;;;9.65;4.45;;;;;;;;;;5114652;28;20051;-81
2022/12/16 01:58:44;;;;;;;7.05;4.57;;;;;;;;;;5115718;28;20047;-82
2022/12/16 02:01:11;;;;;;;10.98;4.18;;;;;;;;;;5115700;28;20039;-83
2022/12/16 02:03:37;;;;;;;;;;;1.90;99.90;;;;;;5114717;28;20060;-81
2022/12/16 02:06:05;;;;;;;10.07;4.72;;;2.10;99.90;;;;;;5115300;28;19931;-82
2022/12/16 02:08:31;;;;;;;8.40;4.70;;;;;;;;;;5097351;28;20556;-81
2022/12/16 02:11:11;;;;;;;13.52;5.82;;;;;;;;;;5114134;28;20040;-81
2022/12/16 02:14:04;;;;;;;10.63;5.22;;;2.00;99.90;;;;;;5114411;28;20047;-81
2022/12/16 02:16:39;;;;;;;7.45;3.90;;;;;;;;;;5097306;28;20403;-81
2022/12/16 02:19:42;;;;;;;7.90;5.10;;;2.30;99.90;;;;;;5113984;28;20776;-80
2022/12/16 02:22:45;;;;;;;11.75;5.82;;;2.00;99.90;;;;;;5114218;28;20047;-81
2022/12/16 02:25:17;;;;;;;10.50;4.90;;;;;;;;;;5114088;28;20105;-80
2022/12/16 02:28:03;;;;;;;8.68;4.85;;;;;;;;;;5113869;28;20070;-81
2022/12/16 02:30:35;;;;;;;13.95;4.80;;;;;;;;;;5096868;28;20040;-81
2022/12/16 02:33:16;;;;;;;10.75;4.43;;;;;;;;;;5096741;28;20105;-79
2022/12/16 02:35:45;;;;;;;9.82;4.22;;;;;;;;;;5113878;28;20047;-80
2022/12/16 02:38:17;;;;;;;9.07;4.53;;;;;;;;;;5096571;28;20134;-79
2022/12/16 02:40:57;;;;;;;7.78;3.95;;;;;;;;;;5114895;28;20506;-78
2022/12/16 02:43:29;;;;;;;8.18;4.53;;;;;;;;;;5113747;28;20605;-79
2022/12/16 02:45:55;;;;;;;10.63;4.50;;;;;;;;;;5114423;28;20134;-76
2022/12/16 02:48:20;;;;;;;13.00;4.65;;;2.50;99.90;;;;;;5112662;28;20089;-79
2022/12/16 02:50:49;;;;;;;14.40;4.20;;;;;;;;;;5113343;28;20056;-78
2022/12/16 02:53:16;;;;;;;7.32;4.13;;;;;;;;;;5096471;28;20281;-77
2022/12/16 02:55:48;;;;;;;7.70;4.05;;;;;;;;;;5113462;28;20090;-78
2022/12/16 02:58:22;;;;;;;7.25;4.47;;;2.60;99.90;;;;;;5114462;28;20047;-78
2022/12/16 03:00:48;;;;;;;11.00;4.72;;;;;;;;;;5096110;28;20139;-78
2022/12/16 03:03:24;;;;;;;8.32;4.07;;;;;;;;;;5114137;28;20094;-76
2022/12/16 03:05:51;;;;;;;7.47;4.57;;;;;;;;;;5096379;28;20051;-77
2022/12/16 03:08:21;;;;;;;10.32;4.43;;;;;;;;;;5114276;28;20051;-78
2022/12/16 03:10:51;;;;;;;9.05;3.78;;;;;;;;;;5113039;28;20502;-77
2022/12/16 03:13:19;;;;;;;14.40;4.57;;;;;;;;;;5114284;28;20063;-78
2022/12/16 03:15:46;;;;;;;10.90;4.57;;;;;;;;;;5113202;28;20044;-77
2022/12/16 03:18:13;;;;;;;7.65;4.15;;;;;;;;;;5112890;28;20131;-76
2022/12/16 03:21:01;;;;;;;7.47;3.83;;;2.70;99.90;;;;;;5096225;28;20097;-77
2022/12/16 03:23:31;;;;;;;10.88;4.38;;;;;;;;;;5113994;28;20124;-76
2022/12/16 03:26:01;;;;;;;11.68;4.80;;;;;;;;;;5112924;28;20054;-77
2022/12/16 03:28:34;;;;;;;12.40;4.20;;;;;;;;;;5114012;28;20440;-77
2022/12/16 03:31:23;;;;;;;11.23;4.35;;;;;;;;;;5112442;28;20043;-76
2022/12/16 03:33:58;;;;;;;14.68;5.07;;;2.60;99.90;;;;;;5106855;28;20132;-78
2022/12/16 03:36:25;;;;;;;13.48;5.13;;;2.50;99.90;;;;;;5113821;28;20043;-78
2022/12/16 03:38:51;;;;;;;13.63;5.72;;;;;;;;;;5112265;28;20574;-77
2022/12/16 03:41:19;;;;;;;14.65;5.03;;;;;;;;;;5112550;28;20063;-78
2022/12/16 03:43:47;;;;;;;13.88;5.60;;;;;;;;;;5113542;28;20096;-77
2022/12/16 03:46:14;;;;;;;14.00;5.55;;;;;;;;;;5111855;28;20056;-78
2022/12/16 03:48:47;;;;;;;7.78;5.00;;;;;;;;;;5113499;28;20063;-78
2022/12/16 03:51:14;;;;;;;14.73;6.00;;;;;;;;;;5113258;28;20040;-78
2022/12/16 03:53:40;;;;;;;16.40;5.32;;;;;;;;;;5113353;28;20051;-78
2022/12/16 03:56:07;;;;;;;18.98;8.75;;;;;;;;;;5113557;27;20289;-78
2022/12/16 03:58:34;;;;;;;29.55;14.20;;;;;;;;;;5112000;28;20055;-78
2022/12/16 04:01:00;;;;;;;39.55;21.45;;;;;;;;;;5111832;28;20135;-79
2022/12/16 04:03:26;;;;;;;41.67;21.63;;;2.60;99.90;;;;;;5112177;28;20051;-79
2022/12/16 04:05:52;;;;;;;41.58;23.20;;;;;;;;;;5113144;28;20051;-79
2022/12/16 04:08:18;;;;;;;41.05;23.27;;;;;;;;;;5078367;28;20044;-79
2022/12/16 04:24:30;;;;;;;43.90;23.77;;;;;;;;;;5111872;28;20074;-79
2022/12/16 04:30:22;;;;;;;39.08;24.48;;;2.00;99.90;;;;;;5097116;28;20146;-79
